sensor_id;sensor_type;location;lat;lon;timestamp;temperature;humidity
74661;SHT31;63191;39.566;2.654;2023-04-24T00:00:40;16.42;83.60
74661;SHT31;63191;39.566;2.654;2023-04-24T00:03:06;16.44;83.65
74661;SHT31;63191;39.566;2.654;2023-04-24T00:05:33;16.45;83.74
74661;SHT31;63191;39.566;2.654;2023-04-24T00:08:00;16.46;83.86
74661;SHT31;63191;39.566;2.654;2023-04-24T00:10:26;16.45;84.01
74661;SHT31;63191;39.566;2.654;2023-04-24T00:12:51;16.43;84.15
74661;SHT31;63191;39.566;2.654;2023-04-24T00:15:19;16.40;84.29
74661;SHT31;63191;39.566;2.654;2023-04-24T00:17:46;16.37;84.48
74661;SHT31;63191;39.566;2.654;2023-04-24T00:20:12;16.32;84.67
74661;SHT31;63191;39.566;2.654;2023-04-24T00:22:40;16.28;84.89
74661;SHT31;63191;39.566;2.654;2023-04-24T00:25:06;16.25;85.11
74661;SHT31;63191;39.566;2.654;2023-04-24T00:27:32;16.23;85.54
74661;SHT31;63191;39.566;2.654;2023-04-24T00:30:00;16.21;85.88
74661;SHT31;63191;39.566;2.654;2023-04-24T00:32:26;16.22;86.12
74661;SHT31;63191;39.566;2.654;2023-04-24T00:34:52;16.22;86.26
74661;SHT31;63191;39.566;2.654;2023-04-24T00:37:19;16.20;86.32
74661;SHT31;63191;39.566;2.654;2023-04-24T00:39:45;16.17;86.43
74661;SHT31;63191;39.566;2.654;2023-04-24T00:42:11;16.16;86.66
74661;SHT31;63191;39.566;2.654;2023-04-24T00:44:37;16.15;86.88
74661;SHT31;63191;39.566;2.654;2023-04-24T00:47:03;16.15;87.04
74661;SHT31;63191;39.566;2.654;2023-04-24T00:49:29;16.15;87.09
74661;SHT31;63191;39.566;2.654;2023-04-24T00:51:55;16.14;87.13
74661;SHT31;63191;39.566;2.654;2023-04-24T00:54:24;16.13;87.18
74661;SHT31;63191;39.566;2.654;2023-04-24T00:56:50;16.09;87.10
74661;SHT31;63191;39.566;2.654;2023-04-24T00:59:16;16.04;87.01
74661;SHT31;63191;39.566;2.654;2023-04-24T01:01:43;15.98;86.94
74661;SHT31;63191;39.566;2.654;2023-04-24T01:04:11;15.94;86.97
74661;SHT31;63191;39.566;2.654;2023-04-24T01:06:40;15.96;87.10
74661;SHT31;63191;39.566;2.654;2023-04-24T01:09:08;15.98;87.08
74661;SHT31;63191;39.566;2.654;2023-04-24T01:11:36;15.98;86.94
74661;SHT31;63191;39.566;2.654;2023-04-24T01:14:03;15.97;86.74
74661;SHT31;63191;39.566;2.654;2023-04-24T01:16:29;15.97;86.63
74661;SHT31;63191;39.566;2.654;2023-04-24T01:18:55;16.02;86.72
74661;SHT31;63191;39.566;2.654;2023-04-24T01:21:21;16.10;86.89
74661;SHT31;63191;39.566;2.654;2023-04-24T01:23:52;16.15;86.79
74661;SHT31;63191;39.566;2.654;2023-04-24T01:26:19;16.16;86.54
74661;SHT31;63191;39.566;2.654;2023-04-24T01:28:45;16.18;86.37
74661;SHT31;63191;39.566;2.654;2023-04-24T01:31:11;16.22;86.30
74661;SHT31;63191;39.566;2.654;2023-04-24T01:33:37;16.28;86.24
74661;SHT31;63191;39.566;2.654;2023-04-24T01:36:03;16.33;86.11
74661;SHT31;63191;39.566;2.654;2023-04-24T01:38:30;16.36;85.93
74661;SHT31;63191;39.566;2.654;2023-04-24T01:40:55;16.42;85.72
74661;SHT31;63191;39.566;2.654;2023-04-24T01:43:24;16.48;85.55
74661;SHT31;63191;39.566;2.654;2023-04-24T01:45:51;16.54;85.39
74661;SHT31;63191;39.566;2.654;2023-04-24T01:48:16;16.60;85.16
74661;SHT31;63191;39.566;2.654;2023-04-24T01:50:42;16.64;84.96
74661;SHT31;63191;39.566;2.654;2023-04-24T01:53:08;16.68;84.78
74661;SHT31;63191;39.566;2.654;2023-04-24T01:55:34;16.72;84.61
74661;SHT31;63191;39.566;2.654;2023-04-24T01:58:00;16.72;84.48
74661;SHT31;63191;39.566;2.654;2023-04-24T02:00:27;16.72;84.28
74661;SHT31;63191;39.566;2.654;2023-04-24T02:02:53;16.70;84.16
74661;SHT31;63191;39.566;2.654;2023-04-24T02:05:18;16.69;84.12
74661;SHT31;63191;39.566;2.654;2023-04-24T02:07:44;16.70;84.19
74661;SHT31;63191;39.566;2.654;2023-04-24T02:10:11;16.72;84.20
74661;SHT31;63191;39.566;2.654;2023-04-24T02:12:39;16.73;84.20
74661;SHT31;63191;39.566;2.654;2023-04-24T02:15:05;16.74;84.16
74661;SHT31;63191;39.566;2.654;2023-04-24T02:17:31;16.75;84.02
74661;SHT31;63191;39.566;2.654;2023-04-24T02:19:57;16.72;83.90
74661;SHT31;63191;39.566;2.654;2023-04-24T02:22:22;16.68;83.86
74661;SHT31;63191;39.566;2.654;2023-04-24T02:24:48;16.64;83.86
74661;SHT31;63191;39.566;2.654;2023-04-24T02:27:14;16.60;83.90
74661;SHT31;63191;39.566;2.654;2023-04-24T02:29:40;16.55;83.99
74661;SHT31;63191;39.566;2.654;2023-04-24T02:32:06;16.50;84.00
74661;SHT31;63191;39.566;2.654;2023-04-24T02:34:31;16.46;83.99
74661;SHT31;63191;39.566;2.654;2023-04-24T02:36:57;16.42;84.00
74661;SHT31;63191;39.566;2.654;2023-04-24T02:39:23;16.39;84.13
74661;SHT31;63191;39.566;2.654;2023-04-24T02:41:48;16.37;84.27
74661;SHT31;63191;39.566;2.654;2023-04-24T02:44:14;16.34;84.37
74661;SHT31;63191;39.566;2.654;2023-04-24T02:46:40;16.31;84.40
74661;SHT31;63191;39.566;2.654;2023-04-24T02:49:07;16.29;84.40
74661;SHT31;63191;39.566;2.654;2023-04-24T02:51:32;16.27;84.40
74661;SHT31;63191;39.566;2.654;2023-04-24T02:53:58;16.28;84.47
74661;SHT31;63191;39.566;2.654;2023-04-24T02:56:24;16.30;84.56
74661;SHT31;63191;39.566;2.654;2023-04-24T02:58:50;16.30;84.60
74661;SHT31;63191;39.566;2.654;2023-04-24T03:01:16;16.28;84.60
74661;SHT31;63191;39.566;2.654;2023-04-24T03:03:42;16.23;84.64
74661;SHT31;63191;39.566;2.654;2023-04-24T03:06:09;16.21;84.76
74661;SHT31;63191;39.566;2.654;2023-04-24T03:08:35;16.16;84.80
74661;SHT31;63191;39.566;2.654;2023-04-24T03:11:01;16.14;84.84
74661;SHT31;63191;39.566;2.654;2023-04-24T03:13:27;16.13;84.90
74661;SHT31;63191;39.566;2.654;2023-04-24T03:15:53;16.10;84.91
74661;SHT31;63191;39.566;2.654;2023-04-24T03:18:19;16.07;84.91
74661;SHT31;63191;39.566;2.654;2023-04-24T03:20:48;16.05;84.99
74661;SHT31;63191;39.566;2.654;2023-04-24T03:23:13;16.00;85.00
74661;SHT31;63191;39.566;2.654;2023-04-24T03:25:40;15.96;85.11
74661;SHT31;63191;39.566;2.654;2023-04-24T03:28:08;15.92;85.19
74661;SHT31;63191;39.566;2.654;2023-04-24T03:30:33;15.91;85.27
74661;SHT31;63191;39.566;2.654;2023-04-24T03:32:59;15.88;85.31
74661;SHT31;63191;39.566;2.654;2023-04-24T03:35:25;15.86;85.39
74661;SHT31;63191;39.566;2.654;2023-04-24T03:37:51;15.83;85.50
74661;SHT31;63191;39.566;2.654;2023-04-24T03:40:17;15.80;85.53
74661;SHT31;63191;39.566;2.654;2023-04-24T03:42:43;15.76;85.61
74661;SHT31;63191;39.566;2.654;2023-04-24T03:45:09;15.74;85.70
74661;SHT31;63191;39.566;2.654;2023-04-24T03:47:36;15.73;85.75
74661;SHT31;63191;39.566;2.654;2023-04-24T03:50:02;15.73;85.81
74661;SHT31;63191;39.566;2.654;2023-04-24T03:52:28;15.73;85.87
74661;SHT31;63191;39.566;2.654;2023-04-24T03:54:54;15.72;85.90
74661;SHT31;63191;39.566;2.654;2023-04-24T03:57:20;15.69;85.97
74661;SHT31;63191;39.566;2.654;2023-04-24T03:59:46;15.67;86.00
74661;SHT31;63191;39.566;2.654;2023-04-24T04:02:12;15.63;86.09
74661;SHT31;63191;39.566;2.654;2023-04-24T04:04:38;15.62;86.19
74661;SHT31;63191;39.566;2.654;2023-04-24T04:07:04;15.63;86.29
74661;SHT31;63191;39.566;2.654;2023-04-24T04:09:30;15.63;86.31
74661;SHT31;63191;39.566;2.654;2023-04-24T04:11:57;15.63;86.34
74661;SHT31;63191;39.566;2.654;2023-04-24T04:14:23;15.63;86.38
74661;SHT31;63191;39.566;2.654;2023-04-24T04:16:49;15.61;86.43
74661;SHT31;63191;39.566;2.654;2023-04-24T04:19:15;15.60;86.45
74661;SHT31;63191;39.566;2.654;2023-04-24T04:21:41;15.58;86.50
74661;SHT31;63191;39.566;2.654;2023-04-24T04:24:06;15.57;86.50
74661;SHT31;63191;39.566;2.654;2023-04-24T04:26:32;15.56;86.50
74661;SHT31;63191;39.566;2.654;2023-04-24T04:28:59;15.56;86.50
74661;SHT31;63191;39.566;2.654;2023-04-24T04:31:28;15.56;86.53
74661;SHT31;63191;39.566;2.654;2023-04-24T04:33:55;15.54;86.60
74661;SHT31;63191;39.566;2.654;2023-04-24T04:36:21;15.53;86.67
74661;SHT31;63191;39.566;2.654;2023-04-24T04:38:49;15.52;86.71
74661;SHT31;63191;39.566;2.654;2023-04-24T04:41:15;15.51;86.70
74661;SHT31;63191;39.566;2.654;2023-04-24T04:43:42;15.51;86.70
74661;SHT31;63191;39.566;2.654;2023-04-24T04:46:07;15.53;86.70
74661;SHT31;63191;39.566;2.654;2023-04-24T04:48:35;15.54;86.71
74661;SHT31;63191;39.566;2.654;2023-04-24T04:51:01;15.56;86.77
74661;SHT31;63191;39.566;2.654;2023-04-24T04:53:27;15.55;86.73
74661;SHT31;63191;39.566;2.654;2023-04-24T04:55:53;15.54;86.70
74661;SHT31;63191;39.566;2.654;2023-04-24T04:58:19;15.52;86.70
74661;SHT31;63191;39.566;2.654;2023-04-24T05:00:44;15.51;86.68
74661;SHT31;63191;39.566;2.654;2023-04-24T05:03:12;15.50;86.62
74661;SHT31;63191;39.566;2.654;2023-04-24T05:05:38;15.52;86.51
74661;SHT31;63191;39.566;2.654;2023-04-24T05:08:06;15.52;86.39
74661;SHT31;63191;39.566;2.654;2023-04-24T05:10:33;15.53;86.27
74661;SHT31;63191;39.566;2.654;2023-04-24T05:12:59;15.53;86.18
74661;SHT31;63191;39.566;2.654;2023-04-24T05:15:25;15.54;86.10
74661;SHT31;63191;39.566;2.654;2023-04-24T05:17:51;15.55;86.01
74661;SHT31;63191;39.566;2.654;2023-04-24T05:20:17;15.58;85.92
74661;SHT31;63191;39.566;2.654;2023-04-24T05:22:46;15.64;85.77
74661;SHT31;63191;39.566;2.654;2023-04-24T05:25:12;15.69;85.63
74661;SHT31;63191;39.566;2.654;2023-04-24T05:27:38;15.74;85.50
74661;SHT31;63191;39.566;2.654;2023-04-24T05:30:04;15.79;85.36
74661;SHT31;63191;39.566;2.654;2023-04-24T05:32:31;15.83;85.23
74661;SHT31;63191;39.566;2.654;2023-04-24T05:34:57;15.91;85.01
74661;SHT31;63191;39.566;2.654;2023-04-24T05:37:22;16.00;84.67
74661;SHT31;63191;39.566;2.654;2023-04-24T05:39:48;16.25;84.09
74661;SHT31;63191;39.566;2.654;2023-04-24T05:42:15;16.64;83.45
74661;SHT31;63191;39.566;2.654;2023-04-24T05:44:41;16.91;83.08
74661;SHT31;63191;39.566;2.654;2023-04-24T05:47:07;17.22;82.53
74661;SHT31;63191;39.566;2.654;2023-04-24T05:49:33;17.53;81.80
74661;SHT31;63191;39.566;2.654;2023-04-24T05:52:00;17.93;80.86
74661;SHT31;63191;39.566;2.654;2023-04-24T05:54:29;18.41;79.79
74661;SHT31;63191;39.566;2.654;2023-04-24T05:56:55;19.00;78.75
74661;SHT31;63191;39.566;2.654;2023-04-24T05:59:21;19.26;78.04
74661;SHT31;63191;39.566;2.654;2023-04-24T06:01:51;19.28;77.39
74661;SHT31;63191;39.566;2.654;2023-04-24T06:04:21;19.28;76.65
74661;SHT31;63191;39.566;2.654;2023-04-24T06:06:49;19.44;75.90
74661;SHT31;63191;39.566;2.654;2023-04-24T06:09:21;19.72;75.23
74661;SHT31;63191;39.566;2.654;2023-04-24T06:11:51;20.01;74.59
74661;SHT31;63191;39.566;2.654;2023-04-24T06:14:20;20.41;73.69
74661;SHT31;63191;39.566;2.654;2023-04-24T06:16:46;21.20;72.44
74661;SHT31;63191;39.566;2.654;2023-04-24T06:19:12;22.25;70.80
74661;SHT31;63191;39.566;2.654;2023-04-24T06:21:38;23.27;69.09
74661;SHT31;63191;39.566;2.654;2023-04-24T06:24:03;24.27;67.18
74661;SHT31;63191;39.566;2.654;2023-04-24T06:26:32;25.27;65.01
74661;SHT31;63191;39.566;2.654;2023-04-24T06:28:58;26.18;63.00
74661;SHT31;63191;39.566;2.654;2023-04-24T06:31:25;26.96;61.10
74661;SHT31;63191;39.566;2.654;2023-04-24T06:33:51;27.71;58.84
74661;SHT31;63191;39.566;2.654;2023-04-24T06:36:16;28.59;56.53
74661;SHT31;63191;39.566;2.654;2023-04-24T06:38:42;29.36;54.34
74661;SHT31;63191;39.566;2.654;2023-04-24T06:41:09;29.96;52.40
74661;SHT31;63191;39.566;2.654;2023-04-24T06:43:35;30.53;50.76
74661;SHT31;63191;39.566;2.654;2023-04-24T06:46:01;31.04;49.07
74661;SHT31;63191;39.566;2.654;2023-04-24T06:48:28;31.31;47.57
74661;SHT31;63191;39.566;2.654;2023-04-24T07:09:24;26.08;49.70
74661;SHT31;63191;39.566;2.654;2023-04-24T07:14:39;24.75;52.61
74661;SHT31;63191;39.566;2.654;2023-04-24T07:17:05;24.18;53.75
74661;SHT31;63191;39.566;2.654;2023-04-24T07:19:39;23.76;55.77
74661;SHT31;63191;39.566;2.654;2023-04-24T07:22:08;23.50;56.96
74661;SHT31;63191;39.566;2.654;2023-04-24T07:24:36;23.26;57.51
74661;SHT31;63191;39.566;2.654;2023-04-24T07:27:04;23.03;57.98
74661;SHT31;63191;39.566;2.654;2023-04-24T07:29:31;22.85;58.56
74661;SHT31;63191;39.566;2.654;2023-04-24T07:31:57;22.73;59.09
74661;SHT31;63191;39.566;2.654;2023-04-24T07:34:23;22.62;59.51
74661;SHT31;63191;39.566;2.654;2023-04-24T07:36:48;22.48;59.95
74661;SHT31;63191;39.566;2.654;2023-04-24T07:39:14;22.41;60.70
74661;SHT31;63191;39.566;2.654;2023-04-24T07:41:40;22.34;61.18
74661;SHT31;63191;39.566;2.654;2023-04-24T07:44:06;22.26;61.78
74661;SHT31;63191;39.566;2.654;2023-04-24T07:46:32;22.29;62.27
74661;SHT31;63191;39.566;2.654;2023-04-24T07:48:58;22.24;61.89
74661;SHT31;63191;39.566;2.654;2023-04-24T07:51:25;22.26;62.57
74661;SHT31;63191;39.566;2.654;2023-04-24T07:53:52;22.39;62.79
74661;SHT31;63191;39.566;2.654;2023-04-24T07:56:20;22.53;62.15
74661;SHT31;63191;39.566;2.654;2023-04-24T07:58:46;22.67;62.13
74661;SHT31;63191;39.566;2.654;2023-04-24T08:01:12;22.72;62.10
74661;SHT31;63191;39.566;2.654;2023-04-24T08:03:38;22.80;61.97
74661;SHT31;63191;39.566;2.654;2023-04-24T08:06:13;23.04;61.93
74661;SHT31;63191;39.566;2.654;2023-04-24T08:08:40;23.25;61.52
74661;SHT31;63191;39.566;2.654;2023-04-24T08:11:06;23.23;60.42
74661;SHT31;63191;39.566;2.654;2023-04-24T08:13:32;23.12;60.43
74661;SHT31;63191;39.566;2.654;2023-04-24T08:15:57;23.00;60.26
74661;SHT31;63191;39.566;2.654;2023-04-24T08:18:23;23.00;60.20
74661;SHT31;63191;39.566;2.654;2023-04-24T08:20:49;23.01;60.88
74661;SHT31;63191;39.566;2.654;2023-04-24T08:23:15;23.14;61.30
74661;SHT31;63191;39.566;2.654;2023-04-24T08:25:40;23.37;61.06
74661;SHT31;63191;39.566;2.654;2023-04-24T08:28:06;23.64;60.41
74661;SHT31;63191;39.566;2.654;2023-04-24T08:30:34;23.80;59.28
74661;SHT31;63191;39.566;2.654;2023-04-24T08:35:34;23.64;59.22
74661;SHT31;63191;39.566;2.654;2023-04-24T08:40:48;23.54;59.46
74661;SHT31;63191;39.566;2.654;2023-04-24T08:43:23;23.92;59.57
74661;SHT31;63191;39.566;2.654;2023-04-24T10:44:04;23.02;63.31
74661;SHT31;63191;39.566;2.654;2023-04-24T10:49:15;22.86;65.54
74661;SHT31;63191;39.566;2.654;2023-04-24T11:02:56;24.71;59.02
74661;SHT31;63191;39.566;2.654;2023-04-24T11:43:29;22.82;66.63
74661;SHT31;63191;39.566;2.654;2023-04-24T11:46:11;22.83;66.32
74661;SHT31;63191;39.566;2.654;2023-04-24T11:56:57;23.15;65.12
74661;SHT31;63191;39.566;2.654;2023-04-24T12:37:18;23.96;60.35
74661;SHT31;63191;39.566;2.654;2023-04-24T12:54:31;24.80;56.59
74661;SHT31;63191;39.566;2.654;2023-04-24T12:57:53;25.15;56.28
74661;SHT31;63191;39.566;2.654;2023-04-24T13:03:58;26.05;56.28
74661;SHT31;63191;39.566;2.654;2023-04-24T13:06:24;26.66;55.43
74661;SHT31;63191;39.566;2.654;2023-04-24T13:23:27;31.60;39.29
74661;SHT31;63191;39.566;2.654;2023-04-24T13:28:18;31.59;39.72
74661;SHT31;63191;39.566;2.654;2023-04-24T13:38:30;31.13;39.35
74661;SHT31;63191;39.566;2.654;2023-04-24T14:00:00;28.01;46.27
74661;SHT31;63191;39.566;2.654;2023-04-24T14:02:40;27.47;48.00
74661;SHT31;63191;39.566;2.654;2023-04-24T14:10:08;26.58;51.47
74661;SHT31;63191;39.566;2.654;2023-04-24T14:12:35;26.38;52.22
74661;SHT31;63191;39.566;2.654;2023-04-24T14:15:05;26.15;52.22
74661;SHT31;63191;39.566;2.654;2023-04-24T14:17:35;25.88;52.86
74661;SHT31;63191;39.566;2.654;2023-04-24T14:20:22;25.70;53.69
74661;SHT31;63191;39.566;2.654;2023-04-24T14:22:51;25.50;54.14
74661;SHT31;63191;39.566;2.654;2023-04-24T14:33:06;24.70;58.52
74661;SHT31;63191;39.566;2.654;2023-04-24T14:41:17;24.08;59.38
74661;SHT31;63191;39.566;2.654;2023-04-24T14:43:43;23.90;60.33
74661;SHT31;63191;39.566;2.654;2023-04-24T14:46:09;23.66;61.51
74661;SHT31;63191;39.566;2.654;2023-04-24T14:48:38;23.44;62.67
74661;SHT31;63191;39.566;2.654;2023-04-24T14:53:30;23.31;64.12
74661;SHT31;63191;39.566;2.654;2023-04-24T14:56:04;23.19;64.09
74661;SHT31;63191;39.566;2.654;2023-04-24T14:58:33;22.99;64.43
74661;SHT31;63191;39.566;2.654;2023-04-24T15:06:39;22.81;65.99
74661;SHT31;63191;39.566;2.654;2023-04-24T15:11:39;22.72;66.07
74661;SHT31;63191;39.566;2.654;2023-04-24T15:14:06;22.65;66.26
74661;SHT31;63191;39.566;2.654;2023-04-24T15:19:18;22.33;66.85
74661;SHT31;63191;39.566;2.654;2023-04-24T15:21:47;22.12;67.45
74661;SHT31;63191;39.566;2.654;2023-04-24T15:24:13;22.02;68.19
74661;SHT31;63191;39.566;2.654;2023-04-24T15:26:39;21.94;68.68
74661;SHT31;63191;39.566;2.654;2023-04-24T15:29:06;21.81;68.96
74661;SHT31;63191;39.566;2.654;2023-04-24T15:31:45;21.66;69.42
74661;SHT31;63191;39.566;2.654;2023-04-24T15:34:14;21.53;70.00
74661;SHT31;63191;39.566;2.654;2023-04-24T15:36:40;21.43;70.34
74661;SHT31;63191;39.566;2.654;2023-04-24T15:39:06;21.34;70.73
74661;SHT31;63191;39.566;2.654;2023-04-24T15:41:35;21.23;71.01
74661;SHT31;63191;39.566;2.654;2023-04-24T15:46:46;21.15;71.86
74661;SHT31;63191;39.566;2.654;2023-04-24T15:49:13;21.18;71.71
74661;SHT31;63191;39.566;2.654;2023-04-24T15:54:04;21.17;71.61
74661;SHT31;63191;39.566;2.654;2023-04-24T16:04:06;21.27;71.47
74661;SHT31;63191;39.566;2.654;2023-04-24T16:06:39;21.33;71.37
74661;SHT31;63191;39.566;2.654;2023-04-24T16:09:06;21.38;71.28
74661;SHT31;63191;39.566;2.654;2023-04-24T16:13:59;21.35;71.24
74661;SHT31;63191;39.566;2.654;2023-04-24T16:16:24;21.33;71.32
74661;SHT31;63191;39.566;2.654;2023-04-24T16:18:50;21.33;71.49
74661;SHT31;63191;39.566;2.654;2023-04-24T16:21:18;21.34;71.42
74661;SHT31;63191;39.566;2.654;2023-04-24T16:23:45;21.29;71.25
74661;SHT31;63191;39.566;2.654;2023-04-24T16:26:10;21.25;71.37
74661;SHT31;63191;39.566;2.654;2023-04-24T16:33:36;21.26;71.42
74661;SHT31;63191;39.566;2.654;2023-04-24T16:36:05;21.22;71.54
74661;SHT31;63191;39.566;2.654;2023-04-24T16:38:42;21.16;71.65
74661;SHT31;63191;39.566;2.654;2023-04-24T16:44:26;21.11;71.88
74661;SHT31;63191;39.566;2.654;2023-04-24T16:49:39;21.00;72.19
74661;SHT31;63191;39.566;2.654;2023-04-24T16:58:35;20.84;72.88
74661;SHT31;63191;39.566;2.654;2023-04-24T17:12:59;20.62;73.55
74661;SHT31;63191;39.566;2.654;2023-04-24T17:16:37;20.53;73.67
74661;SHT31;63191;39.566;2.654;2023-04-24T17:25:02;20.49;73.85
74661;SHT31;63191;39.566;2.654;2023-04-24T17:31:07;20.36;74.45
74661;SHT31;63191;39.566;2.654;2023-04-24T17:33:51;20.28;74.58
74661;SHT31;63191;39.566;2.654;2023-04-24T17:36:34;20.25;74.69
74661;SHT31;63191;39.566;2.654;2023-04-24T17:44:43;20.23;74.89
74661;SHT31;63191;39.566;2.654;2023-04-24T17:53:29;20.00;75.45
74661;SHT31;63191;39.566;2.654;2023-04-24T17:55:55;19.94;75.68
74661;SHT31;63191;39.566;2.654;2023-04-24T17:58:35;19.88;75.87
74661;SHT31;63191;39.566;2.654;2023-04-24T18:01:55;19.78;76.03
74661;SHT31;63191;39.566;2.654;2023-04-24T18:04:35;19.72;76.25
74661;SHT31;63191;39.566;2.654;2023-04-24T18:09:42;19.57;76.54
74661;SHT31;63191;39.566;2.654;2023-04-24T18:12:14;19.54;76.76
74661;SHT31;63191;39.566;2.654;2023-04-24T18:19:33;19.42;77.25
74661;SHT31;63191;39.566;2.654;2023-04-24T18:27:23;19.29;77.44
74661;SHT31;63191;39.566;2.654;2023-04-24T18:32:17;19.19;77.54
74661;SHT31;63191;39.566;2.654;2023-04-24T18:34:47;19.14;77.67
74661;SHT31;63191;39.566;2.654;2023-04-24T18:37:28;19.10;77.83
74661;SHT31;63191;39.566;2.654;2023-04-24T18:40:10;19.07;77.98
74661;SHT31;63191;39.566;2.654;2023-04-24T18:42:55;19.00;78.20
74661;SHT31;63191;39.566;2.654;2023-04-24T18:45:23;18.96;78.51
74661;SHT31;63191;39.566;2.654;2023-04-24T18:50:35;18.89;78.89
74661;SHT31;63191;39.566;2.654;2023-04-24T18:53:02;18.84;79.13
74661;SHT31;63191;39.566;2.654;2023-04-24T18:55:31;18.81;79.28
74661;SHT31;63191;39.566;2.654;2023-04-24T18:57:57;18.79;79.42
74661;SHT31;63191;39.566;2.654;2023-04-24T19:03:07;18.73;79.71
74661;SHT31;63191;39.566;2.654;2023-04-24T19:05:36;18.71;79.84
74661;SHT31;63191;39.566;2.654;2023-04-24T19:10:32;18.68;79.90
74661;SHT31;63191;39.566;2.654;2023-04-24T19:12:59;18.65;79.99
74661;SHT31;63191;39.566;2.654;2023-04-24T19:15:26;18.64;80.01
74661;SHT31;63191;39.566;2.654;2023-04-24T19:17:54;18.62;80.06
74661;SHT31;63191;39.566;2.654;2023-04-24T19:20:29;18.60;80.10
74661;SHT31;63191;39.566;2.654;2023-04-24T19:22:55;18.59;80.09
74661;SHT31;63191;39.566;2.654;2023-04-24T19:28:14;18.53;80.00
74661;SHT31;63191;39.566;2.654;2023-04-24T19:30:40;18.52;80.01
74661;SHT31;63191;39.566;2.654;2023-04-24T19:37:01;18.48;79.98
74661;SHT31;63191;39.566;2.654;2023-04-24T19:39:30;18.45;79.94
74661;SHT31;63191;39.566;2.654;2023-04-24T19:50:13;18.40;80.20
74661;SHT31;63191;39.566;2.654;2023-04-24T19:53:03;18.36;80.20
74661;SHT31;63191;39.566;2.654;2023-04-24T19:58:21;18.33;80.30
74661;SHT31;63191;39.566;2.654;2023-04-24T20:03:15;18.32;80.38
74661;SHT31;63191;39.566;2.654;2023-04-24T20:08:43;18.31;80.41
74661;SHT31;63191;39.566;2.654;2023-04-24T20:13:37;18.25;80.31
74661;SHT31;63191;39.566;2.654;2023-04-24T20:47:16;18.27;81.63
74661;SHT31;63191;39.566;2.654;2023-04-24T20:53:04;18.30;82.18
74661;SHT31;63191;39.566;2.654;2023-04-24T20:55:31;18.29;82.38
74661;SHT31;63191;39.566;2.654;2023-04-24T20:58:06;18.28;82.49
74661;SHT31;63191;39.566;2.654;2023-04-24T21:00:44;18.26;82.66
74661;SHT31;63191;39.566;2.654;2023-04-24T21:36:29;18.23;82.70
74661;SHT31;63191;39.566;2.654;2023-04-24T21:44:19;18.22;82.81
74661;SHT31;63191;39.566;2.654;2023-04-24T21:49:10;18.18;82.98
74661;SHT31;63191;39.566;2.654;2023-04-24T21:54:14;18.17;82.83
74661;SHT31;63191;39.566;2.654;2023-04-24T21:59:30;18.14;82.66
74661;SHT31;63191;39.566;2.654;2023-04-24T22:01:57;18.13;82.49
74661;SHT31;63191;39.566;2.654;2023-04-24T22:04:26;18.15;82.28
74661;SHT31;63191;39.566;2.654;2023-04-24T22:06:52;18.15;82.07
74661;SHT31;63191;39.566;2.654;2023-04-24T22:09:20;18.15;81.83
74661;SHT31;63191;39.566;2.654;2023-04-24T22:11:56;18.15;81.61
74661;SHT31;63191;39.566;2.654;2023-04-24T22:14:21;18.14;81.43
74661;SHT31;63191;39.566;2.654;2023-04-24T22:16:47;18.14;81.25
74661;SHT31;63191;39.566;2.654;2023-04-24T22:19:16;18.14;81.13
74661;SHT31;63191;39.566;2.654;2023-04-24T22:22:04;18.13;81.00
74661;SHT31;63191;39.566;2.654;2023-04-24T22:24:29;18.11;80.91
74661;SHT31;63191;39.566;2.654;2023-04-24T22:29:29;18.11;80.73
74661;SHT31;63191;39.566;2.654;2023-04-24T22:32:02;18.10;80.62
74661;SHT31;63191;39.566;2.654;2023-04-24T22:34:28;18.09;80.58
74661;SHT31;63191;39.566;2.654;2023-04-24T22:37:06;18.08;80.55
74661;SHT31;63191;39.566;2.654;2023-04-24T22:39:32;18.07;80.58
74661;SHT31;63191;39.566;2.654;2023-04-24T22:42:07;18.04;80.59
74661;SHT31;63191;39.566;2.654;2023-04-24T22:44:33;18.05;80.59
74661;SHT31;63191;39.566;2.654;2023-04-24T22:46:59;18.05;80.59
74661;SHT31;63191;39.566;2.654;2023-04-24T22:52:00;18.03;80.65
74661;SHT31;63191;39.566;2.654;2023-04-24T22:57:09;18.04;80.70
74661;SHT31;63191;39.566;2.654;2023-04-24T22:59:40;18.04;80.70
74661;SHT31;63191;39.566;2.654;2023-04-24T23:02:07;18.03;80.63
74661;SHT31;63191;39.566;2.654;2023-04-24T23:04:34;18.00;80.55
74661;SHT31;63191;39.566;2.654;2023-04-24T23:07:00;17.98;80.47
74661;SHT31;63191;39.566;2.654;2023-04-24T23:09:41;17.94;80.36
74661;SHT31;63191;39.566;2.654;2023-04-24T23:12:07;17.89;80.20
74661;SHT31;63191;39.566;2.654;2023-04-24T23:14:36;17.85;80.20
74661;SHT31;63191;39.566;2.654;2023-04-24T23:19:37;17.81;80.24
74661;SHT31;63191;39.566;2.654;2023-04-24T23:22:03;17.79;80.33
74661;SHT31;63191;39.566;2.654;2023-04-24T23:24:29;17.78;80.47
74661;SHT31;63191;39.566;2.654;2023-04-24T23:26:55;17.76;80.70
74661;SHT31;63191;39.566;2.654;2023-04-24T23:29:21;17.74;80.81
74661;SHT31;63191;39.566;2.654;2023-04-24T23:31:47;17.73;80.90
74661;SHT31;63191;39.566;2.654;2023-04-24T23:34:19;17.73;80.90
74661;SHT31;63191;39.566;2.654;2023-04-24T23:36:46;17.72;80.90
74661;SHT31;63191;39.566;2.654;2023-04-24T23:39:19;17.71;80.90
74661;SHT31;63191;39.566;2.654;2023-04-24T23:46:53;17.63;80.72
74661;SHT31;63191;39.566;2.654;2023-04-24T23:49:22;17.60;80.56
74661;SHT31;63191;39.566;2.654;2023-04-24T23:52:03;17.56;80.40
74661;SHT31;63191;39.566;2.654;2023-04-24T23:54:31;17.53;80.30
74661;SHT31;63191;39.566;2.654;2023-04-24T23:56:57;17.51;80.30
74661;SHT31;63191;39.566;2.654;2023-04-24T23:59:23;17.50;80.31
